Time;durP1;ratioP1;P1;durP2;ratioP2;P2;SDS_P1;SDS_P2;PMS_P1;PMS_P2;Temp;Humidity;BMP_temperature;BMP_pressure;BME280_temperature;BME280_humidity;BME280_pressure;Samples;Min_cycle;Max_cycle;Signal;HPM_P1;HPM_P2
2023/07/19 00:00:50;;;;;;;4.03;1.83;;;16.60;99.90;;;;;;5023022;28;20201;-90
2023/07/19 00:03:17;;;;;;;1.98;1.88;;;16.60;99.90;;;;;;5026714;28;20209;-89
2023/07/19 00:05:43;;;;;;;2.47;2.28;;;16.60;99.90;;;;;;5040467;28;20209;-87
2023/07/19 00:08:12;;;;;;;5.45;2.00;;;;;;;;;;5046831;28;20298;-87
2023/07/19 00:10:39;;;;;;;2.45;1.70;;;16.50;99.90;;;;;;5033882;28;20544;-87
2023/07/19 00:13:06;;;;;;;2.58;1.92;;;16.50;99.90;;;;;;5024561;28;20816;-86
2023/07/19 00:15:33;;;;;;;3.42;2.28;;;16.40;99.90;;;;;;5032493;28;20215;-88
2023/07/19 00:18:00;;;;;;;6.20;2.20;;;16.40;99.90;;;;;;5036503;28;20208;-87
2023/07/19 00:20:27;;;;;;;2.40;2.20;;;16.40;99.90;;;;;;5034825;28;20442;-88
2023/07/19 00:22:54;;;;;;;3.78;2.38;;;16.40;99.90;;;;;;5045164;28;20197;-87
2023/07/19 00:25:22;;;;;;;3.67;2.45;;;16.40;99.90;;;;;;5028564;28;20216;-86
2023/07/19 00:27:49;;;;;;;4.28;2.28;;;16.40;99.90;;;;;;5021848;28;20225;-86
2023/07/19 00:30:16;;;;;;;4.03;2.28;;;16.40;99.90;;;;;;5041137;28;20258;-87
2023/07/19 00:32:43;;;;;;;4.53;2.47;;;16.40;99.90;;;;;;5033437;28;20295;-88
2023/07/19 00:35:10;;;;;;;3.25;2.35;;;16.30;99.90;;;;;;5042250;28;20200;-88
2023/07/19 00:37:37;;;;;;;3.05;2.30;;;16.40;99.90;;;;;;5046701;28;20192;-89
2023/07/19 00:40:04;;;;;;;5.13;2.40;;;16.30;99.90;;;;;;5047393;28;20208;-87
2023/07/19 00:42:32;;;;;;;3.08;2.55;;;16.40;99.90;;;;;;5037087;28;20278;-88
2023/07/19 00:44:59;;;;;;;4.53;2.30;;;16.50;99.90;;;;;;5027920;28;20743;-88
2023/07/19 00:47:27;;;;;;;3.22;2.40;;;16.40;99.90;;;;;;5025081;28;20217;-88
2023/07/19 00:49:54;;;;;;;5.35;2.28;;;16.40;99.90;;;;;;5038000;28;20203;-86
2023/07/19 00:52:21;;;;;;;3.33;2.30;;;16.50;99.90;;;;;;5033719;28;20204;-85
2023/07/19 00:54:48;;;;;;;3.35;2.53;;;16.40;99.90;;;;;;5042741;28;20461;-88
2023/07/19 00:57:15;;;;;;;5.82;3.00;;;16.40;99.90;;;;;;5031665;28;21983;-86
2023/07/19 00:59:43;;;;;;;8.25;3.42;;;16.30;99.90;;;;;;5011863;28;20996;-88
2023/07/19 01:02:10;;;;;;;5.80;2.70;;;16.20;99.90;;;;;;5039103;28;20691;-87
2023/07/19 01:04:37;;;;;;;2.78;2.30;;;16.20;99.90;;;;;;5038209;28;20813;-87
2023/07/19 01:07:05;;;;;;;7.28;2.80;;;16.10;99.90;;;;;;5047245;28;20220;-87
2023/07/19 01:09:32;;;;;;;3.83;2.50;;;16.10;99.90;;;;;;5033952;28;20421;-86
2023/07/19 01:11:59;;;;;;;3.70;2.85;;;16.00;99.90;;;;;;5055241;28;20209;-87
2023/07/19 01:14:26;;;;;;;4.55;2.83;;;16.00;99.90;;;;;;5008815;28;20699;-87
2023/07/19 01:16:54;;;;;;;7.13;4.50;;;16.10;99.90;;;;;;5047093;28;20204;-86
2023/07/19 01:19:21;;;;;;;6.00;3.00;;;16.20;99.90;;;;;;5026392;28;20212;-88
2023/07/19 01:21:50;;;;;;;3.72;2.65;;;16.10;99.90;;;;;;5039080;28;20201;-89
2023/07/19 01:24:18;;;;;;;9.10;3.33;;;16.10;99.90;;;;;;5038574;28;20709;-87
2023/07/19 01:26:45;;;;;;;3.10;2.80;;;16.10;99.90;;;;;;5045976;28;20429;-86
2023/07/19 01:29:12;;;;;;;3.00;2.70;;;16.20;99.90;;;;;;5037857;28;20220;-88
2023/07/19 01:31:39;;;;;;;3.55;3.25;;;16.10;99.90;;;;;;5016573;28;20655;-87
2023/07/19 01:34:05;;;;;;;3.40;3.20;;;16.10;99.90;;;;;;5043298;28;20594;-89
2023/07/19 01:36:32;;;;;;;3.70;3.20;;;16.00;99.90;;;;;;5027762;28;20709;-89
2023/07/19 01:38:59;;;;;;;4.22;3.42;;;16.10;99.90;;;;;;5041772;28;20680;-86
2023/07/19 01:41:27;;;;;;;8.73;3.60;;;16.10;99.90;;;;;;5041328;28;20204;-87
2023/07/19 01:43:54;;;;;;;5.57;3.25;;;16.10;99.90;;;;;;5034577;28;20229;-87
2023/07/19 01:46:21;;;;;;;6.65;3.22;;;16.00;99.90;;;;;;5025494;28;20204;-88
2023/07/19 01:48:48;;;;;;;6.38;3.80;;;16.10;99.90;;;;;;5034023;28;20641;-88
2023/07/19 01:51:15;;;;;;;8.13;2.80;;;16.10;99.90;;;;;;5033767;28;20204;-89
2023/07/19 01:53:41;;;;;;;5.78;3.67;;;16.10;99.90;;;;;;5035547;28;20856;-87
2023/07/19 01:56:08;;;;;;;5.07;3.30;;;16.10;99.90;;;;;;5049205;28;20200;-86
2023/07/19 01:58:36;;;;;;;5.30;3.55;;;16.10;99.90;;;;;;5033527;28;20202;-89
2023/07/19 02:01:03;;;;;;;4.05;3.65;;;16.10;99.90;;;;;;5046505;28;20215;-86
2023/07/19 02:03:30;;;;;;;4.07;3.33;;;16.00;99.90;;;;;;5022111;28;20789;-87
2023/07/19 02:05:58;;;;;;;3.30;3.00;;;16.10;99.90;;;;;;5040536;28;20884;-86
2023/07/19 02:08:25;;;;;;;4.53;3.30;;;16.10;99.90;;;;;;5031839;28;20216;-90
2023/07/19 02:10:52;;;;;;;4.38;3.17;;;16.10;99.90;;;;;;5045680;28;20202;-87
2023/07/19 02:13:19;;;;;;;4.00;3.55;;;16.10;99.90;;;;;;5040563;28;20968;-85
2023/07/19 02:15:47;;;;;;;6.38;3.15;;;;;;;;;;5036458;28;20711;-86
2023/07/19 02:18:14;;;;;;;3.38;3.03;;;16.00;99.90;;;;;;5021722;28;20687;-85
2023/07/19 02:20:45;;;;;;;5.88;3.28;;;16.00;99.90;;;;;;5041058;28;20202;-87
2023/07/19 02:23:12;;;;;;;6.25;3.08;;;16.10;99.90;;;;;;5049678;28;20665;-85
2023/07/19 02:25:41;;;;;;;6.90;3.22;;;16.10;99.90;;;;;;5042155;28;20211;-85
2023/07/19 02:28:09;;;;;;;5.53;3.10;;;16.00;99.90;;;;;;5040976;28;20734;-87
2023/07/19 02:30:36;;;;;;;7.50;3.45;;;16.10;99.90;;;;;;5036947;28;20212;-88
2023/07/19 02:33:04;;;;;;;10.02;3.60;;;16.00;99.90;;;;;;5022483;28;20930;-87
2023/07/19 02:35:31;;;;;;;7.25;3.22;;;16.00;99.90;;;;;;5044425;28;20217;-85
2023/07/19 02:37:58;;;;;;;4.28;3.03;;;16.00;99.90;;;;;;5032274;28;20712;-86
2023/07/19 02:40:24;;;;;;;4.90;3.38;;;16.10;99.90;;;;;;5040671;28;20205;-85
2023/07/19 02:42:51;;;;;;;10.13;3.90;;;16.00;99.90;;;;;;5041028;28;20318;-87
2023/07/19 02:45:18;;;;;;;6.82;3.45;;;16.00;99.90;;;;;;5033486;28;20213;-87
2023/07/19 02:47:45;;;;;;;4.28;3.35;;;16.40;99.90;;;;;;5026747;28;20243;-85
2023/07/19 02:50:13;;;;;;;6.13;3.45;;;16.00;99.90;;;;;;5044435;28;20655;-85
2023/07/19 02:52:40;;;;;;;9.00;3.25;;;15.90;99.90;;;;;;5036239;28;20211;-87
2023/07/19 02:55:07;;;;;;;3.85;3.22;;;16.00;99.90;;;;;;5025408;28;20743;-85
2023/07/19 02:57:34;;;;;;;7.25;3.70;;;16.00;99.90;;;;;;5046336;28;20197;-88
2023/07/19 03:00:02;;;;;;;5.93;4.28;;;16.00;99.90;;;;;;5030052;28;20196;-87
2023/07/19 03:02:29;;;;;;;5.72;4.38;;;16.00;99.90;;;;;;5038280;28;20860;-87
2023/07/19 03:04:56;;;;;;;6.40;3.92;;;16.00;99.90;;;;;;5021852;28;20212;-87
2023/07/19 03:07:24;;;;;;;5.07;4.10;;;16.00;99.90;;;;;;5028285;28;22759;-86
2023/07/19 03:09:51;;;;;;;7.47;4.57;;;16.10;99.90;;;;;;5049984;28;20232;-88
2023/07/19 03:12:18;;;;;;;4.20;3.70;;;16.10;99.90;;;;;;5023987;28;20959;-88
2023/07/19 03:14:45;;;;;;;8.43;4.30;;;16.10;99.90;;;;;;5043946;28;20205;-89
2023/07/19 03:17:12;;;;;;;5.78;4.28;;;16.10;99.90;;;;;;5026317;28;21006;-87
2023/07/19 03:19:39;;;;;;;7.47;4.43;;;16.00;99.90;;;;;;5022132;28;20619;-88
2023/07/19 03:22:06;;;;;;;5.40;3.70;;;15.90;99.90;;;;;;5035063;28;20201;-87
2023/07/19 03:24:35;;;;;;;5.05;3.65;;;;;;;;;;5037365;28;20205;-87
2023/07/19 03:27:01;;;;;;;6.25;3.55;;;16.00;99.90;;;;;;5032518;28;20197;-86
2023/07/19 03:29:28;;;;;;;6.50;3.80;;;16.00;99.90;;;;;;5043175;28;20220;-87
2023/07/19 03:31:55;;;;;;;8.10;4.25;;;;;;;;;;5040338;28;20204;-85
2023/07/19 03:34:22;;;;;;;10.07;3.72;;;15.90;99.90;;;;;;5022352;28;20213;-86
2023/07/19 03:36:49;;;;;;;10.65;3.88;;;16.00;99.90;;;;;;5045071;28;20201;-86
2023/07/19 03:39:16;;;;;;;6.95;4.28;;;16.00;99.90;;;;;;5037456;28;20561;-88
2023/07/19 03:41:44;;;;;;;4.22;3.83;;;;;;;;;;5039819;28;20232;-86
2023/07/19 03:44:11;;;;;;;5.35;3.80;;;16.00;99.90;;;;;;5030493;28;20232;-86
2023/07/19 03:46:38;;;;;;;5.55;3.88;;;15.90;99.90;;;;;;5032951;28;20209;-86
2023/07/19 03:49:05;;;;;;;5.72;4.20;;;15.80;99.90;;;;;;5040382;28;20240;-86
2023/07/19 03:51:32;;;;;;;7.38;4.63;;;15.80;99.90;;;;;;5016577;28;20217;-85
2023/07/19 03:53:59;;;;;;;5.78;4.15;;;;;;;;;;5036539;28;20688;-85
2023/07/19 03:56:26;;;;;;;4.30;3.55;;;15.80;99.90;;;;;;5034695;28;20215;-87
2023/07/19 03:58:54;;;;;;;6.80;4.00;;;15.80;99.90;;;;;;5042970;28;20205;-85
2023/07/19 04:01:21;;;;;;;4.95;4.28;;;15.90;99.90;;;;;;5044703;28;20577;-84
2023/07/19 04:03:48;;;;;;;4.45;3.90;;;16.00;99.90;;;;;;5045519;28;20213;-85
2023/07/19 04:06:14;;;;;;;6.35;4.35;;;16.00;99.90;;;;;;5029494;28;20216;-86
2023/07/19 04:08:41;;;;;;;5.63;3.83;;;16.00;99.90;;;;;;5036402;28;20332;-86
2023/07/19 04:11:08;;;;;;;8.35;4.07;;;15.90;99.90;;;;;;5046833;28;20427;-87
2023/07/19 04:13:35;;;;;;;11.20;4.25;;;16.00;99.90;;;;;;5031884;28;20715;-88
2023/07/19 04:16:03;;;;;;;5.68;3.80;;;15.90;99.90;;;;;;5027249;28;20212;-87
2023/07/19 04:18:30;;;;;;;7.07;4.13;;;15.90;99.90;;;;;;5048413;28;20707;-86
2023/07/19 04:20:58;;;;;;;10.35;4.07;;;15.90;99.90;;;;;;5020553;28;20225;-86
2023/07/19 04:23:25;;;;;;;4.60;3.78;;;15.90;99.90;;;;;;5034488;28;20216;-86
2023/07/19 04:25:52;;;;;;;6.97;3.58;;;15.90;99.90;;;;;;5044613;28;20207;-86
2023/07/19 04:28:19;;;;;;;4.40;3.80;;;15.90;99.90;;;;;;5037981;28;20583;-86
2023/07/19 04:30:46;;;;;;;5.20;4.22;;;15.80;99.90;;;;;;5031610;28;20296;-86
2023/07/19 04:33:15;;;;;;;6.20;4.32;;;15.60;99.90;;;;;;5032614;28;20679;-85
2023/07/19 04:35:42;;;;;;;6.93;4.30;;;15.60;99.90;;;;;;5011880;28;21526;-87
2023/07/19 04:38:09;;;;;;;5.25;4.22;;;15.60;99.90;;;;;;5033365;28;20753;-86
2023/07/19 04:40:35;;;;;;;7.50;4.63;;;15.70;99.90;;;;;;5026851;28;20212;-86
2023/07/19 04:43:02;;;;;;;7.90;4.43;;;15.70;99.90;;;;;;5022473;28;20270;-86
2023/07/19 04:45:30;;;;;;;7.50;4.38;;;;;;;;;;4998138;28;20549;-84
2023/07/19 04:47:57;;;;;;;6.15;4.35;;;15.70;99.90;;;;;;5028999;28;20309;-86
2023/07/19 04:50:25;;;;;;;4.97;4.20;;;15.70;99.90;;;;;;5017245;28;20716;-87
2023/07/19 04:52:53;;;;;;;6.28;4.22;;;15.70;99.90;;;;;;5020342;28;20205;-87
2023/07/19 04:55:20;;;;;;;5.38;4.30;;;15.80;99.90;;;;;;5024873;28;20684;-85
2023/07/19 04:57:47;;;;;;;4.95;4.45;;;15.80;99.90;;;;;;5026524;28;21577;-85
2023/07/19 05:00:15;;;;;;;4.68;4.03;;;15.80;99.90;;;;;;5012137;28;20309;-86
2023/07/19 05:02:42;;;;;;;6.68;4.40;;;15.80;99.90;;;;;;5029096;28;20209;-84
2023/07/19 05:05:12;;;;;;;6.07;4.53;;;15.90;99.90;;;;;;5025392;28;20286;-84
2023/07/19 05:07:40;;;;;;;5.03;4.30;;;15.80;99.90;;;;;;5005739;28;21316;-88
2023/07/19 05:10:08;;;;;;;5.65;4.50;;;15.90;99.90;;;;;;5029993;28;20259;-85
2023/07/19 05:12:35;;;;;;;4.72;4.13;;;16.00;99.90;;;;;;5032724;28;20459;-85
2023/07/19 05:15:02;;;;;;;5.65;4.03;;;15.90;99.90;;;;;;5032362;28;20588;-85
2023/07/19 05:17:29;;;;;;;5.57;4.20;;;15.90;99.90;;;;;;5017989;28;20217;-87
2023/07/19 05:19:56;;;;;;;6.15;3.72;;;16.50;99.90;;;;;;5037045;28;20397;-88
2023/07/19 05:22:23;;;;;;;5.95;3.80;;;15.80;99.90;;;;;;5034562;28;20216;-84
2023/07/19 05:24:52;;;;;;;5.47;3.42;;;15.80;99.90;;;;;;4999385;28;20416;-86
2023/07/19 05:27:18;;;;;;;5.68;3.50;;;15.80;99.90;;;;;;5034609;28;20808;-84
2023/07/19 05:29:45;;;;;;;6.50;4.07;;;15.80;99.90;;;;;;5020739;28;20247;-84
2023/07/19 05:32:12;;;;;;;7.45;3.40;;;15.80;99.90;;;;;;5037711;28;20208;-85
2023/07/19 05:34:39;;;;;;;3.90;3.50;;;15.70;99.90;;;;;;5038260;28;21826;-85
2023/07/19 05:37:07;;;;;;;5.82;3.45;;;15.70;99.90;;;;;;5033917;28;20205;-85
2023/07/19 05:39:34;;;;;;;7.18;3.97;;;15.70;99.90;;;;;;5012124;28;20578;-85
2023/07/19 05:42:03;;;;;;;4.63;3.30;;;15.80;99.90;;;;;;5027330;28;20223;-85
2023/07/19 05:44:29;;;;;;;5.93;3.63;;;15.70;99.90;;;;;;5020596;28;20212;-85
2023/07/19 05:46:56;;;;;;;4.40;3.08;;;15.70;99.90;;;;;;5029951;28;20228;-86
2023/07/19 05:49:23;;;;;;;3.30;3.00;;;15.80;99.90;;;;;;5031035;28;20228;-86
2023/07/19 05:51:50;;;;;;;4.18;3.42;;;15.70;99.90;;;;;;5028765;28;20398;-86
2023/07/19 05:54:17;;;;;;;4.28;3.08;;;17.40;99.90;;;;;;5021915;28;20683;-86
2023/07/19 05:56:44;;;;;;;19.25;3.05;;;15.80;99.90;;;;;;5031947;28;20204;-88
2023/07/19 05:59:13;;;;;;;5.95;2.78;;;15.80;99.90;;;;;;5038410;28;20698;-86
2023/07/19 06:01:40;;;;;;;2.95;2.63;;;15.70;99.90;;;;;;5037033;28;20735;-87
2023/07/19 06:04:07;;;;;;;3.20;2.90;;;15.70;99.90;;;;;;5034260;28;20214;-88
2023/07/19 06:06:34;;;;;;;3.58;2.72;;;15.70;99.90;;;;;;5042223;28;20205;-87
2023/07/19 06:09:05;;;;;;;2.88;2.58;;;15.80;99.90;;;;;;5033963;28;20452;-87
2023/07/19 06:11:32;;;;;;;3.15;2.55;;;15.70;99.90;;;;;;5021208;28;20688;-84
2023/07/19 06:13:59;;;;;;;3.25;2.53;;;15.70;99.90;;;;;;5035458;28;20505;-86
2023/07/19 06:16:27;;;;;;;6.78;2.85;;;15.70;99.90;;;;;;5039711;28;20556;-89
2023/07/19 06:18:54;;;;;;;3.92;2.72;;;15.80;99.90;;;;;;5022572;28;20324;-87
2023/07/19 06:21:21;;;;;;;4.47;3.03;;;15.80;99.90;;;;;;5041866;28;20205;-88
2023/07/19 06:23:48;;;;;;;3.60;2.90;;;15.90;99.90;;;;;;5030069;28;20243;-86
2023/07/19 06:26:15;;;;;;;6.57;3.05;;;15.90;99.90;;;;;;5012873;28;20704;-88
2023/07/19 06:28:42;;;;;;;5.78;3.05;;;16.00;99.90;;;;;;5028349;28;20205;-85
2023/07/19 06:31:08;;;;;;;5.40;3.00;;;16.00;99.90;;;;;;5041878;28;20209;-87
2023/07/19 06:33:37;;;;;;;5.25;3.08;;;;;;;;;;5039876;28;20373;-86
2023/07/19 06:36:04;;;;;;;5.40;2.95;;;16.10;99.90;;;;;;5037941;28;20712;-86
2023/07/19 06:38:31;;;;;;;10.10;3.30;;;16.10;99.90;;;;;;5047931;28;20412;-86
2023/07/19 06:41:02;;;;;;;8.40;3.15;;;16.20;99.90;;;;;;5044814;28;20197;-85
2023/07/19 06:43:29;;;;;;;5.97;3.20;;;17.60;99.90;;;;;;5016350;28;20416;-86
2023/07/19 06:45:56;;;;;;;9.50;2.92;;;16.20;99.90;;;;;;5045054;28;20662;-87
2023/07/19 06:48:23;;;;;;;5.07;3.45;;;16.30;99.90;;;;;;5031061;28;20235;-88
2023/07/19 06:50:51;;;;;;;5.28;3.22;;;16.40;99.90;;;;;;5040589;28;20521;-87
2023/07/19 06:53:18;;;;;;;3.42;3.08;;;16.40;99.90;;;;;;5046577;28;20514;-86
2023/07/19 06:55:45;;;;;;;7.80;3.83;;;16.50;99.90;;;;;;5045146;28;20204;-88
2023/07/19 06:58:12;;;;;;;3.25;2.95;;;16.60;99.90;;;;;;5012823;28;20708;-86
2023/07/19 07:00:39;;;;;;;5.95;3.28;;;16.60;99.90;;;;;;5039888;28;20212;-85
2023/07/19 07:03:06;;;;;;;3.53;2.83;;;16.50;99.90;;;;;;5033174;28;20210;-86
2023/07/19 07:05:33;;;;;;;5.63;2.70;;;16.60;99.90;;;;;;5020527;28;20209;-86
2023/07/19 07:08:01;;;;;;;4.32;2.97;;;16.80;99.90;;;;;;5047786;28;20205;-86
2023/07/19 07:10:28;;;;;;;4.00;2.70;;;16.90;99.90;;;;;;5045792;28;20784;-87
2023/07/19 07:12:55;;;;;;;5.22;2.60;;;16.90;99.90;;;;;;5030160;28;20589;-89
2023/07/19 07:15:22;;;;;;;5.22;2.55;;;16.90;99.90;;;;;;5028463;28;20212;-86
2023/07/19 07:17:48;;;;;;;3.10;2.40;;;16.80;99.90;;;;;;5046769;28;20698;-86
2023/07/19 07:20:15;;;;;;;4.93;2.38;;;16.70;99.90;;;;;;5014231;28;20296;-86
2023/07/19 07:22:42;;;;;;;3.70;2.35;;;16.70;99.90;;;;;;5037030;28;20209;-87
2023/07/19 07:25:10;;;;;;;4.50;2.38;;;16.70;99.90;;;;;;5018535;28;20200;-86
2023/07/19 07:27:38;;;;;;;3.08;2.50;;;16.70;99.90;;;;;;5022208;28;20457;-86
2023/07/19 07:30:07;;;;;;;3.22;2.35;;;16.70;99.90;;;;;;5031816;28;20836;-87
2023/07/19 07:32:35;;;;;;;2.22;2.03;;;16.70;99.90;;;;;;5050110;28;20576;-87
2023/07/19 07:35:03;;;;;;;2.83;2.42;;;16.70;99.90;;;;;;5038078;28;20267;-87
2023/07/19 07:37:30;;;;;;;5.88;2.47;;;16.80;99.90;;;;;;5032757;28;20295;-87
2023/07/19 07:39:56;;;;;;;3.40;2.58;;;16.90;99.90;;;;;;5041636;28;20208;-88
2023/07/19 07:42:24;;;;;;;5.93;2.65;;;16.80;99.90;;;;;;5026428;28;20204;-88
2023/07/19 07:44:51;;;;;;;3.97;2.63;;;17.00;99.90;;;;;;5024962;28;20331;-88
2023/07/19 07:47:18;;;;;;;3.28;2.97;;;17.10;99.90;;;;;;5037601;28;20502;-86
2023/07/19 07:49:46;;;;;;;4.80;3.20;;;17.10;99.90;;;;;;5028814;28;20236;-86
2023/07/19 07:52:15;;;;;;;3.17;2.88;;;17.30;99.90;;;;;;5032445;28;20213;-87
2023/07/19 07:54:42;;;;;;;3.65;2.90;;;17.30;99.90;;;;;;5040212;28;20566;-86
2023/07/19 07:57:09;;;;;;;3.60;2.70;;;;;;;;;;5044346;28;20201;-86
2023/07/19 07:59:37;;;;;;;5.45;2.90;;;17.40;99.90;;;;;;5005126;28;20205;-88
2023/07/19 08:02:04;;;;;;;5.03;3.28;;;17.40;99.90;;;;;;5039604;28;20232;-85
2023/07/19 08:04:31;;;;;;;8.32;2.97;;;17.30;99.90;;;;;;5043736;28;20201;-87
2023/07/19 08:06:57;;;;;;;5.90;3.67;;;17.40;99.90;;;;;;5026599;28;20504;-86
2023/07/19 08:09:24;;;;;;;3.45;3.15;;;17.40;99.90;;;;;;5041136;28;20600;-86
2023/07/19 08:11:51;;;;;;;4.60;2.88;;;17.60;99.90;;;;;;5033405;28;20418;-86
2023/07/19 08:14:19;;;;;;;4.88;3.33;;;17.70;99.90;;;;;;5022553;28;20213;-88
2023/07/19 08:16:50;;;;;;;4.60;3.47;;;17.70;99.90;;;;;;5023853;28;20692;-87
2023/07/19 08:19:17;;;;;;;4.97;3.90;;;17.80;99.90;;;;;;5043261;28;20201;-88
2023/07/19 08:21:43;;;;;;;4.55;3.15;;;17.70;99.90;;;;;;5029367;28;20205;-87
2023/07/19 08:24:11;;;;;;;5.28;3.40;;;17.80;99.90;;;;;;5046965;28;20209;-86
2023/07/19 08:26:38;;;;;;;4.38;3.17;;;17.80;99.90;;;;;;5041073;28;21017;-88
2023/07/19 08:29:04;;;;;;;6.43;3.58;;;17.80;99.90;;;;;;5043503;28;20205;-86
2023/07/19 08:31:31;;;;;;;8.55;4.55;;;17.80;99.90;;;;;;5032707;28;20299;-86
2023/07/19 08:33:59;;;;;;;5.63;4.25;;;17.90;99.90;;;;;;5046374;28;20803;-86
2023/07/19 08:36:26;;;;;;;6.97;4.55;;;18.00;99.90;;;;;;5037165;28;20559;-89
2023/07/19 08:38:53;;;;;;;6.40;4.25;;;18.00;99.90;;;;;;5022284;28;20216;-87
2023/07/19 08:41:22;;;;;;;7.22;5.13;;;18.00;99.90;;;;;;5019638;28;20398;-88
2023/07/19 08:43:49;;;;;;;8.13;4.82;;;18.00;99.90;;;;;;5024781;28;20634;-88
2023/07/19 08:46:16;;;;;;;9.23;4.82;;;18.10;99.90;;;;;;5001049;28;20221;-86
2023/07/19 08:48:48;;;;;;;7.03;4.15;;;18.10;99.90;;;;;;5041582;28;20588;-87
2023/07/19 08:51:17;;;;;;;8.57;4.60;;;18.10;99.90;;;;;;5033146;28;20469;-88
2023/07/19 08:53:44;;;;;;;5.60;4.90;;;18.10;99.90;;;;;;5032223;28;20722;-89
2023/07/19 08:56:12;;;;;;;6.90;5.05;;;18.00;99.90;;;;;;5039189;28;20568;-88
2023/07/19 08:58:40;;;;;;;9.93;4.95;;;17.90;99.90;;;;;;5029892;28;20473;-86
2023/07/19 09:01:07;;;;;;;8.13;5.18;;;18.00;99.90;;;;;;5008456;28;20215;-86
2023/07/19 09:03:34;;;;;;;8.80;5.20;;;18.00;99.90;;;;;;5035223;28;20907;-88
2023/07/19 09:06:01;;;;;;;8.18;5.07;;;18.00;99.90;;;;;;5017163;28;20209;-86
2023/07/19 09:08:40;;;;;;;6.97;4.80;;;18.00;99.90;;;;;;5031780;28;21207;-86
2023/07/19 09:11:08;;;;;;;6.70;6.00;;;18.00;99.90;;;;;;5013810;28;20232;-86
2023/07/19 09:13:38;;;;;;;7.63;5.88;;;17.90;99.90;;;;;;5030729;28;20291;-89
2023/07/19 09:16:06;;;;;;;7.40;6.18;;;17.90;99.90;;;;;;5005164;28;20220;-88
2023/07/19 09:18:36;;;;;;;6.97;5.65;;;17.90;99.90;;;;;;5029975;28;20219;-86
2023/07/19 09:21:04;;;;;;;7.28;5.95;;;;;;;;;;5036297;28;20203;-86
2023/07/19 09:23:35;;;;;;;9.10;6.00;;;17.80;99.90;;;;;;5021908;28;20209;-88
2023/07/19 09:26:04;;;;;;;10.38;6.25;;;17.80;99.90;;;;;;5023691;28;20206;-89
2023/07/19 09:28:33;;;;;;;9.82;6.40;;;17.90;99.90;;;;;;5028530;28;20738;-87
2023/07/19 09:31:01;;;;;;;9.10;6.53;;;17.80;99.90;;;;;;5029790;28;20236;-88
2023/07/19 09:33:29;;;;;;;6.97;6.28;;;17.80;99.90;;;;;;5025340;28;20313;-89
2023/07/19 09:35:57;;;;;;;8.27;6.45;;;17.80;99.90;;;;;;5018201;28;20204;-88
2023/07/19 09:38:25;;;;;;;7.85;5.80;;;17.90;99.90;;;;;;5019402;28;20964;-87
2023/07/19 09:40:54;;;;;;;7.32;5.53;;;18.00;99.90;;;;;;5011580;28;20204;-88
2023/07/19 09:43:22;;;;;;;7.18;5.15;;;17.90;99.90;;;;;;5038238;28;20221;-87
2023/07/19 09:45:51;;;;;;;5.15;4.57;;;17.90;99.90;;;;;;5021446;28;20449;-87
2023/07/19 09:48:19;;;;;;;4.18;3.63;;;18.00;99.90;;;;;;5014034;28;20723;-86
2023/07/19 09:50:49;;;;;;;5.80;3.83;;;18.20;99.90;;;;;;5030293;28;20232;-88
2023/07/19 09:53:16;;;;;;;5.05;3.80;;;18.30;99.90;;;;;;5018051;28;20938;-87
2023/07/19 09:55:46;;;;;;;6.22;3.40;;;18.40;99.90;;;;;;5035130;28;20783;-87
2023/07/19 09:58:16;;;;;;;4.20;3.10;;;18.40;99.90;;;;;;5036287;28;20208;-89
2023/07/19 10:00:46;;;;;;;4.30;3.08;;;18.40;99.90;;;;;;5041187;28;20198;-86
2023/07/19 10:03:18;;;;;;;4.47;2.80;;;18.50;99.90;;;;;;4999585;28;20221;-90
2023/07/19 10:05:45;;;;;;;3.67;2.50;;;18.50;99.90;;;;;;5029266;28;20216;-88
2023/07/19 10:08:12;;;;;;;4.50;2.42;;;18.70;99.90;;;;;;5010512;28;20462;-87
2023/07/19 10:10:40;;;;;;;3.25;2.63;;;18.80;99.90;;;;;;5036485;28;20223;-88
2023/07/19 10:13:07;;;;;;;3.58;2.88;;;18.90;99.90;;;;;;5034873;28;20204;-89
2023/07/19 10:15:35;;;;;;;3.58;3.28;;;19.00;99.90;;;;;;5035625;28;20225;-86
2023/07/19 10:18:11;;;;;;;2.45;2.10;;;19.00;99.90;;;;;;5013498;28;20209;-87
2023/07/19 10:20:40;;;;;;;3.78;2.35;;;18.90;99.90;;;;;;5046866;28;20245;-87
2023/07/19 10:23:08;;;;;;;2.70;1.90;;;19.00;99.90;;;;;;5021460;28;20205;-89
2023/07/19 10:25:37;;;;;;;4.70;2.40;;;18.90;99.90;;;;;;5050576;28;20201;-86
2023/07/19 10:28:05;;;;;;;5.00;2.60;;;18.90;99.90;;;;;;5027148;28;20282;-86
2023/07/19 10:30:49;;;;;;;6.78;2.80;;;18.80;99.90;;;;;;5042951;28;20502;-86
2023/07/19 10:33:19;;;;;;;3.38;2.28;;;18.80;99.90;;;;;;5025893;28;20526;-89
2023/07/19 10:35:47;;;;;;;7.03;2.33;;;18.80;99.90;;;;;;5025178;28;20227;-88
2023/07/19 10:38:15;;;;;;;5.90;2.67;;;18.80;99.90;;;;;;4996740;28;20205;-89
2023/07/19 10:40:45;;;;;;;6.05;2.60;;;18.80;99.90;;;;;;5038213;28;20208;-89
2023/07/19 10:43:11;;;;;;;5.00;2.58;;;18.90;99.90;;;;;;5020104;28;20310;-87
2023/07/19 10:45:39;;;;;;;3.63;2.30;;;19.10;99.90;;;;;;5047827;28;20636;-88
2023/07/19 10:48:06;;;;;;;3.17;2.50;;;19.50;99.90;;;;;;5026167;28;20244;-88
2023/07/19 10:50:34;;;;;;;4.90;2.53;;;19.50;99.90;;;;;;5037529;28;20226;-87
2023/07/19 10:53:01;;;;;;;4.72;2.58;;;19.60;99.90;;;;;;5030675;28;20205;-87
2023/07/19 10:55:29;;;;;;;3.85;2.17;;;19.50;99.90;;;;;;5039241;28;20228;-91
2023/07/19 10:57:56;;;;;;;2.80;1.70;;;19.60;99.90;;;;;;5030477;28;20222;-87
2023/07/19 11:00:23;;;;;;;1.73;1.63;;;19.60;99.90;;;;;;5032502;28;20719;-88
2023/07/19 11:02:50;;;;;;;8.00;1.83;;;19.70;99.90;;;;;;5026553;28;20233;-85
2023/07/19 11:05:17;;;;;;;4.22;1.50;;;19.80;99.90;;;;;;5007183;28;20212;-86
2023/07/19 11:07:49;;;;;;;1.77;1.30;;;19.90;99.90;;;;;;5028156;28;20582;-89
2023/07/19 11:10:16;;;;;;;5.65;1.02;;;20.00;99.90;;;;;;5015257;28;20531;-87
2023/07/19 11:12:43;;;;;;;3.20;1.52;;;20.20;99.90;;;;;;5021729;28;21682;-91
2023/07/19 11:15:10;;;;;;;1.85;1.00;;;20.40;99.90;;;;;;5030226;28;20205;-90
2023/07/19 11:17:38;;;;;;;1.80;0.93;;;20.40;99.90;;;;;;5028800;28;20208;-88
2023/07/19 11:20:06;;;;;;;2.72;1.15;;;20.50;99.90;;;;;;5011304;28;20227;-89
2023/07/19 11:22:33;;;;;;;2.63;1.42;;;20.60;99.90;;;;;;5041065;28;20194;-92
2023/07/19 11:25:09;;;;;;;3.28;1.17;;;20.80;99.90;;;;;;5036653;28;20212;-91
2023/07/19 11:27:37;;;;;;;1.75;0.93;;;20.80;99.90;;;;;;5041795;28;20200;-90
2023/07/19 11:30:05;;;;;;;2.25;1.10;;;20.90;99.90;;;;;;5040542;28;20231;-91
2023/07/19 11:32:32;;;;;;;1.10;0.98;;;20.80;99.90;;;;;;5050174;28;20225;-88
2023/07/19 11:35:00;;;;;;;2.10;1.02;;;20.60;99.90;;;;;;5025511;28;20204;-89
2023/07/19 11:37:29;;;;;;;1.00;1.00;;;20.30;99.90;;;;;;5047397;28;20198;-89
2023/07/19 11:39:58;;;;;;;5.15;0.90;;;20.00;99.90;;;;;;5040662;28;20205;-89
2023/07/19 11:42:43;;;;;;;2.97;1.20;;;19.90;99.90;;;;;;5049392;28;20205;-89
2023/07/19 11:45:12;;;;;;;6.22;1.45;;;19.80;99.90;;;;;;5024557;28;20402;-92
2023/07/19 11:47:39;;;;;;;5.57;1.00;;;19.70;99.90;;;;;;5044580;28;20205;-89
2023/07/19 11:50:07;;;;;;;6.07;1.25;;;19.60;99.90;;;;;;5009393;28;20595;-89
2023/07/19 11:52:44;;;;;;;2.78;1.13;;;19.60;99.90;;;;;;5033633;28;20596;-90
2023/07/19 11:55:11;;;;;;;1.88;1.00;;;19.50;99.90;;;;;;5017295;28;20578;-90
2023/07/19 11:57:38;;;;;;;1.60;1.15;;;19.50;99.90;;;;;;5041440;28;20900;-88
2023/07/19 12:00:08;;;;;;;2.60;1.55;;;19.40;99.90;;;;;;5032141;28;20205;-90
2023/07/19 12:02:36;;;;;;;3.00;1.50;;;19.40;99.90;;;;;;5035071;28;20385;-91
2023/07/19 12:05:04;;;;;;;2.22;1.20;;;19.40;99.90;;;;;;5052287;28;20209;-90
2023/07/19 12:07:31;;;;;;;5.53;1.80;;;19.30;99.90;;;;;;5030137;28;20213;-89
2023/07/19 12:09:59;;;;;;;3.20;1.70;;;19.20;99.90;;;;;;5048873;28;20261;-89
2023/07/19 12:12:25;;;;;;;1.90;1.30;;;19.20;99.90;;;;;;5038688;28;20231;-89
2023/07/19 12:14:52;;;;;;;2.90;1.55;;;19.20;99.90;;;;;;5004265;28;20659;-89
2023/07/19 12:17:20;;;;;;;2.17;1.50;;;19.20;99.90;;;;;;5030800;28;20215;-90
2023/07/19 12:19:47;;;;;;;2.80;1.30;;;19.20;99.90;;;;;;5035623;28;20213;-91
2023/07/19 12:22:14;;;;;;;1.77;1.00;;;19.20;99.90;;;;;;5024058;28;20667;-90
2023/07/19 12:24:41;;;;;;;2.60;1.40;;;19.30;99.90;;;;;;5049736;28;20299;-93
2023/07/19 12:27:08;;;;;;;2.95;1.58;;;19.40;99.90;;;;;;5034044;28;20209;-89
2023/07/19 12:29:35;;;;;;;1.38;1.27;;;19.40;99.90;;;;;;5041364;28;20294;-91
2023/07/19 12:32:03;;;;;;;4.65;1.70;;;19.40;99.90;;;;;;5031535;28;20228;-90
2023/07/19 12:34:32;;;;;;;3.08;1.73;;;19.40;99.90;;;;;;5029124;28;20544;-91
2023/07/19 12:36:58;;;;;;;3.15;1.52;;;19.20;99.90;;;;;;5021542;28;20220;-90
2023/07/19 12:39:26;;;;;;;2.50;1.75;;;;;;;;;;5046197;28;20428;-92
2023/07/19 12:41:52;;;;;;;4.45;2.08;;;19.30;99.90;;;;;;5040115;28;20401;-90
2023/07/19 12:44:20;;;;;;;2.17;1.75;;;19.30;99.90;;;;;;5048296;28;20706;-89
2023/07/19 12:46:48;;;;;;;7.80;1.85;;;19.40;99.90;;;;;;5030443;28;20205;-89
2023/07/19 12:49:15;;;;;;;5.45;1.70;;;19.60;99.90;;;;;;5044366;28;20230;-88
2023/07/19 12:51:45;;;;;;;4.63;1.73;;;19.60;99.90;;;;;;5006382;28;20935;-90